sensor_id;sensor_type;location;lat;lon;timestamp;pressure;altitude;pressure_sealevel;temperature;humidity
51715;BME280;39115;59.332;18.034;2023-04-06T00:00:35;102140.78;;;2.13;52.34
51715;BME280;39115;59.332;18.034;2023-04-06T00:02:55;102141.66;;;2.12;52.61
51715;BME280;39115;59.332;18.034;2023-04-06T00:05:16;102130.31;;;2.11;52.59
51715;BME280;39115;59.332;18.034;2023-04-06T00:07:36;102143.50;;;2.10;52.33
51715;BME280;39115;59.332;18.034;2023-04-06T00:09:56;102148.75;;;2.10;52.44
51715;BME280;39115;59.332;18.034;2023-04-06T00:12:17;102149.66;;;2.09;52.20
51715;BME280;39115;59.332;18.034;2023-04-06T00:14:37;102141.78;;;2.09;52.77
51715;BME280;39115;59.332;18.034;2023-04-06T00:16:57;102144.41;;;2.09;52.34
51715;BME280;39115;59.332;18.034;2023-04-06T00:19:18;102144.44;;;2.07;52.29
51715;BME280;39115;59.332;18.034;2023-04-06T00:21:38;102144.50;;;2.05;52.59
51715;BME280;39115;59.332;18.034;2023-04-06T00:23:59;102140.13;;;2.04;52.55
51715;BME280;39115;59.332;18.034;2023-04-06T00:26:19;102146.28;;;2.03;52.40
51715;BME280;39115;59.332;18.034;2023-04-06T00:28:40;102152.41;;;2.04;52.33
51715;BME280;39115;59.332;18.034;2023-04-06T00:31:00;102152.44;;;2.02;52.59
51715;BME280;39115;59.332;18.034;2023-04-06T00:33:20;102148.97;;;2.02;52.39
51715;BME280;39115;59.332;18.034;2023-04-06T00:35:41;102149.88;;;2.01;52.29
51715;BME280;39115;59.332;18.034;2023-04-06T00:38:01;102143.78;;;1.99;52.58
51715;BME280;39115;59.332;18.034;2023-04-06T00:40:22;102146.47;;;1.97;52.42
51715;BME280;39115;59.332;18.034;2023-04-06T00:42:42;102143.91;;;1.96;52.40
51715;BME280;39115;59.332;18.034;2023-04-06T00:45:02;102149.16;;;1.96;52.62
51715;BME280;39115;59.332;18.034;2023-04-06T00:47:23;102153.53;;;1.95;52.46
51715;BME280;39115;59.332;18.034;2023-04-06T00:49:45;102148.28;;;1.95;52.36
51715;BME280;39115;59.332;18.034;2023-04-06T00:52:05;102146.59;;;1.94;52.43
51715;BME280;39115;59.332;18.034;2023-04-06T00:54:25;102151.84;;;1.94;52.45
51715;BME280;39115;59.332;18.034;2023-04-06T00:56:46;102152.75;;;1.93;52.33
51715;BME280;39115;59.332;18.034;2023-04-06T00:59:06;102150.13;;;1.93;52.35
51715;BME280;39115;59.332;18.034;2023-04-06T01:01:26;102147.50;;;1.93;52.53
51715;BME280;39115;59.332;18.034;2023-04-06T01:03:48;102155.38;;;1.92;52.74
51715;BME280;39115;59.332;18.034;2023-04-06T01:06:10;102147.50;;;1.92;52.51
51715;BME280;39115;59.332;18.034;2023-04-06T01:08:30;102148.41;;;1.90;52.60
51715;BME280;39115;59.332;18.034;2023-04-06T01:10:50;102146.72;;;1.89;52.78
51715;BME280;39115;59.332;18.034;2023-04-06T01:13:11;102146.75;;;1.88;52.65
51715;BME280;39115;59.332;18.034;2023-04-06T01:15:31;102145.00;;;1.87;52.53
51715;BME280;39115;59.332;18.034;2023-04-06T01:17:53;102152.03;;;1.86;52.70
51715;BME280;39115;59.332;18.034;2023-04-06T01:20:14;102144.16;;;1.86;52.47
51715;BME280;39115;59.332;18.034;2023-04-06T01:22:34;102150.25;;;1.87;53.03
51715;BME280;39115;59.332;18.034;2023-04-06T01:24:54;102146.84;;;1.85;52.88
51715;BME280;39115;59.332;18.034;2023-04-06T01:27:15;102154.66;;;1.86;52.51
51715;BME280;39115;59.332;18.034;2023-04-06T01:29:35;102155.50;;;1.87;52.86
51715;BME280;39115;59.332;18.034;2023-04-06T01:31:56;102155.50;;;1.87;52.84
51715;BME280;39115;59.332;18.034;2023-04-06T01:34:16;102154.53;;;1.91;52.73
51715;BME280;39115;59.332;18.034;2023-04-06T01:36:36;102155.31;;;1.95;52.66
51715;BME280;39115;59.332;18.034;2023-04-06T01:38:57;102163.97;;;1.98;52.48
51715;BME280;39115;59.332;18.034;2023-04-06T01:41:17;102164.78;;;2.00;52.75
51715;BME280;39115;59.332;18.034;2023-04-06T01:43:37;102155.06;;;2.02;52.56
51715;BME280;39115;59.332;18.034;2023-04-06T01:45:58;102159.44;;;2.03;52.71
51715;BME280;39115;59.332;18.034;2023-04-06T01:48:18;102160.25;;;2.05;52.66
51715;BME280;39115;59.332;18.034;2023-04-06T01:50:38;102148.78;;;2.08;52.88
51715;BME280;39115;59.332;18.034;2023-04-06T01:52:59;102157.41;;;2.13;52.73
51715;BME280;39115;59.332;18.034;2023-04-06T01:55:19;102158.19;;;2.15;52.61
51715;BME280;39115;59.332;18.034;2023-04-06T01:57:40;102152.88;;;2.18;52.59
51715;BME280;39115;59.332;18.034;2023-04-06T02:00:00;102151.97;;;2.19;52.76
51715;BME280;39115;59.332;18.034;2023-04-06T02:02:20;102158.81;;;2.25;52.56
51715;BME280;39115;59.332;18.034;2023-04-06T02:04:41;102153.44;;;2.28;52.75
51715;BME280;39115;59.332;18.034;2023-04-06T02:07:01;102156.00;;;2.31;52.85
51715;BME280;39115;59.332;18.034;2023-04-06T02:09:22;102163.75;;;2.34;52.78
51715;BME280;39115;59.332;18.034;2023-04-06T02:11:42;102160.22;;;2.37;53.09
51715;BME280;39115;59.332;18.034;2023-04-06T02:14:02;102161.88;;;2.40;52.82
51715;BME280;39115;59.332;18.034;2023-04-06T02:16:23;102160.03;;;2.42;52.89
51715;BME280;39115;59.332;18.034;2023-04-06T02:18:43;102167.03;;;2.43;52.78
51715;BME280;39115;59.332;18.034;2023-04-06T02:21:03;102163.44;;;2.45;52.73
51715;BME280;39115;59.332;18.034;2023-04-06T02:23:24;102165.13;;;2.48;52.72
51715;BME280;39115;59.332;18.034;2023-04-06T02:25:45;102162.44;;;2.49;52.79
51715;BME280;39115;59.332;18.034;2023-04-06T02:28:05;102164.16;;;2.50;52.84
51715;BME280;39115;59.332;18.034;2023-04-06T02:30:25;102159.81;;;2.49;52.92
51715;BME280;39115;59.332;18.034;2023-04-06T02:32:46;102158.84;;;2.52;52.79
51715;BME280;39115;59.332;18.034;2023-04-06T02:35:06;102162.38;;;2.52;52.96
51715;BME280;39115;59.332;18.034;2023-04-06T02:37:27;102159.75;;;2.52;52.95
51715;BME280;39115;59.332;18.034;2023-04-06T02:39:47;102160.59;;;2.53;52.90
51715;BME280;39115;59.332;18.034;2023-04-06T02:42:07;102167.63;;;2.52;53.02
51715;BME280;39115;59.332;18.034;2023-04-06T02:44:29;102163.22;;;2.53;53.17
51715;BME280;39115;59.332;18.034;2023-04-06T02:46:49;102166.66;;;2.55;53.01
51715;BME280;39115;59.332;18.034;2023-04-06T02:49:10;102162.25;;;2.56;53.16
51715;BME280;39115;59.332;18.034;2023-04-06T02:51:30;102171.00;;;2.56;52.96
51715;BME280;39115;59.332;18.034;2023-04-06T02:53:50;102163.06;;;2.58;52.84
51715;BME280;39115;59.332;18.034;2023-04-06T02:56:11;102174.44;;;2.58;52.89
51715;BME280;39115;59.332;18.034;2023-04-06T02:58:31;102166.47;;;2.61;52.85
51715;BME280;39115;59.332;18.034;2023-04-06T03:00:52;102167.31;;;2.62;53.00
51715;BME280;39115;59.332;18.034;2023-04-06T03:03:13;102163.78;;;2.63;53.03
51715;BME280;39115;59.332;18.034;2023-04-06T03:05:33;102171.66;;;2.63;52.84
51715;BME280;39115;59.332;18.034;2023-04-06T03:07:54;102169.84;;;2.65;52.85
51715;BME280;39115;59.332;18.034;2023-04-06T03:10:14;102175.06;;;2.66;53.00
51715;BME280;39115;59.332;18.034;2023-04-06T03:12:35;102172.41;;;2.66;52.84
51715;BME280;39115;59.332;18.034;2023-04-06T03:14:55;102165.41;;;2.67;52.95
51715;BME280;39115;59.332;18.034;2023-04-06T03:17:15;102172.41;;;2.68;53.09
51715;BME280;39115;59.332;18.034;2023-04-06T03:19:36;102174.97;;;2.69;52.91
51715;BME280;39115;59.332;18.034;2023-04-06T03:21:56;102173.16;;;2.72;53.01
51715;BME280;39115;59.332;18.034;2023-04-06T03:24:16;102173.03;;;2.75;52.93
51715;BME280;39115;59.332;18.034;2023-04-06T03:26:37;102171.28;;;2.75;53.04
51715;BME280;39115;59.332;18.034;2023-04-06T03:28:57;102173.91;;;2.75;52.95
51715;BME280;39115;59.332;18.034;2023-04-06T03:31:17;102173.91;;;2.75;52.82
51715;BME280;39115;59.332;18.034;2023-04-06T03:33:38;102179.22;;;2.74;53.10
51715;BME280;39115;59.332;18.034;2023-04-06T03:35:58;102176.50;;;2.77;52.81
51715;BME280;39115;59.332;18.034;2023-04-06T03:38:18;102176.50;;;2.77;53.00
51715;BME280;39115;59.332;18.034;2023-04-06T03:40:39;102181.75;;;2.77;53.05
51715;BME280;39115;59.332;18.034;2023-04-06T03:43:00;102184.38;;;2.77;53.07
51715;BME280;39115;59.332;18.034;2023-04-06T03:45:20;102182.56;;;2.79;52.91
51715;BME280;39115;59.332;18.034;2023-04-06T03:47:41;102187.84;;;2.79;52.93
51715;BME280;39115;59.332;18.034;2023-04-06T03:50:01;102195.72;;;2.79;53.21
51715;BME280;39115;59.332;18.034;2023-04-06T03:52:22;102189.56;;;2.80;52.98
51715;BME280;39115;59.332;18.034;2023-04-06T03:54:43;102180.78;;;2.79;53.00
51715;BME280;39115;59.332;18.034;2023-04-06T03:57:03;102195.66;;;2.80;53.11
51715;BME280;39115;59.332;18.034;2023-04-06T03:59:24;102190.41;;;2.80;53.00
51715;BME280;39115;59.332;18.034;2023-04-06T04:01:44;102193.88;;;2.81;53.08
51715;BME280;39115;59.332;18.034;2023-04-06T04:04:05;102195.59;;;2.82;53.12
51715;BME280;39115;59.332;18.034;2023-04-06T04:06:25;102199.13;;;2.82;53.03
51715;BME280;39115;59.332;18.034;2023-04-06T04:08:45;102197.28;;;2.84;53.05
51715;BME280;39115;59.332;18.034;2023-04-06T04:11:06;102199.00;;;2.85;52.95
51715;BME280;39115;59.332;18.034;2023-04-06T04:13:26;102199.88;;;2.86;52.85
51715;BME280;39115;59.332;18.034;2023-04-06T04:15:46;102198.91;;;2.89;53.12
51715;BME280;39115;59.332;18.034;2023-04-06T04:18:07;102193.66;;;2.89;53.12
51715;BME280;39115;59.332;18.034;2023-04-06T04:20:27;102203.25;;;2.90;52.84
51715;BME280;39115;59.332;18.034;2023-04-06T04:22:48;102208.41;;;2.93;53.11
51715;BME280;39115;59.332;18.034;2023-04-06T04:25:09;102211.91;;;2.93;53.27
51715;BME280;39115;59.332;18.034;2023-04-06T04:27:29;102205.75;;;2.94;53.03
51715;BME280;39115;59.332;18.034;2023-04-06T04:29:50;102208.31;;;2.96;52.97
51715;BME280;39115;59.332;18.034;2023-04-06T04:32:10;102210.00;;;2.98;52.93
51715;BME280;39115;59.332;18.034;2023-04-06T04:34:31;102212.56;;;3.00;53.00
51715;BME280;39115;59.332;18.034;2023-04-06T04:36:52;102210.75;;;3.02;52.86
51715;BME280;39115;59.332;18.034;2023-04-06T04:39:12;102216.78;;;3.06;52.92
51715;BME280;39115;59.332;18.034;2023-04-06T04:41:32;102211.44;;;3.07;52.94
51715;BME280;39115;59.332;18.034;2023-04-06T04:43:53;102215.78;;;3.10;52.86
51715;BME280;39115;59.332;18.034;2023-04-06T04:46:13;102220.13;;;3.11;52.97
51715;BME280;39115;59.332;18.034;2023-04-06T04:48:33;102220.88;;;3.14;52.87
51715;BME280;39115;59.332;18.034;2023-04-06T04:50:54;102225.22;;;3.15;53.00
51715;BME280;39115;59.332;18.034;2023-04-06T04:53:15;102220.72;;;3.19;52.90
51715;BME280;39115;59.332;18.034;2023-04-06T04:55:35;102217.22;;;3.19;52.85
51715;BME280;39115;59.332;18.034;2023-04-06T04:57:55;102225.94;;;3.21;52.99
51715;BME280;39115;59.332;18.034;2023-04-06T05:00:16;102228.47;;;3.24;53.04
51715;BME280;39115;59.332;18.034;2023-04-06T05:02:36;102232.78;;;3.26;52.90
51715;BME280;39115;59.332;18.034;2023-04-06T05:04:57;102235.34;;;3.28;52.92
51715;BME280;39115;59.332;18.034;2023-04-06T05:07:17;102236.13;;;3.31;53.03
51715;BME280;39115;59.332;18.034;2023-04-06T05:09:38;102245.69;;;3.34;52.83
51715;BME280;39115;59.332;18.034;2023-04-06T05:11:59;102237.69;;;3.37;52.86
51715;BME280;39115;59.332;18.034;2023-04-06T05:14:20;102230.53;;;3.41;52.99
51715;BME280;39115;59.332;18.034;2023-04-06T05:16:40;102236.56;;;3.44;52.86
51715;BME280;39115;59.332;18.034;2023-04-06T05:19:01;102232.16;;;3.45;52.81
51715;BME280;39115;59.332;18.034;2023-04-06T05:21:21;102244.34;;;3.47;52.88
51715;BME280;39115;59.332;18.034;2023-04-06T05:23:41;102242.47;;;3.51;52.78
51715;BME280;39115;59.332;18.034;2023-04-06T05:26:02;102235.38;;;3.53;52.87
51715;BME280;39115;59.332;18.034;2023-04-06T05:28:22;102237.00;;;3.57;52.88
51715;BME280;39115;59.332;18.034;2023-04-06T05:30:43;102236.81;;;3.62;52.81
51715;BME280;39115;59.332;18.034;2023-04-06T05:33:04;102235.81;;;3.66;52.74
51715;BME280;39115;59.332;18.034;2023-04-06T05:35:24;102229.66;;;3.67;52.73
51715;BME280;39115;59.332;18.034;2023-04-06T05:37:45;102237.25;;;3.75;52.87
51715;BME280;39115;59.332;18.034;2023-04-06T05:40:05;102237.97;;;3.80;52.77
51715;BME280;39115;59.332;18.034;2023-04-06T05:42:26;102236.03;;;3.85;52.47
51715;BME280;39115;59.332;18.034;2023-04-06T05:44:47;102243.78;;;3.90;52.88
51715;BME280;39115;59.332;18.034;2023-04-06T05:47:07;102244.59;;;3.92;53.14
51715;BME280;39115;59.332;18.034;2023-04-06T05:49:28;102248.88;;;3.94;52.88
51715;BME280;39115;59.332;18.034;2023-04-06T05:51:48;102249.63;;;3.98;52.79
51715;BME280;39115;59.332;18.034;2023-04-06T05:54:08;102245.97;;;4.02;52.51
51715;BME280;39115;59.332;18.034;2023-04-06T05:56:28;102249.31;;;4.07;52.48
51715;BME280;39115;59.332;18.034;2023-04-06T05:58:50;102252.63;;;4.13;52.69
51715;BME280;39115;59.332;18.034;2023-04-06T06:01:10;102252.56;;;4.14;52.71
51715;BME280;39115;59.332;18.034;2023-04-06T06:03:31;102252.53;;;4.16;52.68
51715;BME280;39115;59.332;18.034;2023-04-06T06:05:51;102254.94;;;4.22;52.64
51715;BME280;39115;59.332;18.034;2023-04-06T06:08:11;102262.66;;;4.26;52.78
51715;BME280;39115;59.332;18.034;2023-04-06T06:10:31;102257.25;;;4.30;52.58
51715;BME280;39115;59.332;18.034;2023-04-06T06:12:52;102264.16;;;4.34;52.46
51715;BME280;39115;59.332;18.034;2023-04-06T06:15:12;102256.94;;;4.39;52.52
51715;BME280;39115;59.332;18.034;2023-04-06T06:17:32;102262.03;;;4.43;52.44
51715;BME280;39115;59.332;18.034;2023-04-06T06:19:53;102263.59;;;4.49;52.57
51715;BME280;39115;59.332;18.034;2023-04-06T06:22:13;102263.34;;;4.55;52.34
51715;BME280;39115;59.332;18.034;2023-04-06T06:24:33;102274.53;;;4.62;52.99
51715;BME280;39115;59.332;18.034;2023-04-06T06:26:54;102264.59;;;4.69;52.70
51715;BME280;39115;59.332;18.034;2023-04-06T06:29:14;102262.56;;;4.75;52.72
51715;BME280;39115;59.332;18.034;2023-04-06T06:31:34;102264.97;;;4.82;52.74
51715;BME280;39115;59.332;18.034;2023-04-06T06:33:55;102263.00;;;4.87;52.54
51715;BME280;39115;59.332;18.034;2023-04-06T06:36:16;102266.34;;;4.92;52.25
51715;BME280;39115;59.332;18.034;2023-04-06T06:38:37;102272.34;;;4.96;52.44
51715;BME280;39115;59.332;18.034;2023-04-06T06:40:58;102272.22;;;4.99;52.52
51715;BME280;39115;59.332;18.034;2023-04-06T06:43:18;102273.81;;;5.03;52.71
51715;BME280;39115;59.332;18.034;2023-04-06T06:45:39;102264.06;;;5.05;52.51
51715;BME280;39115;59.332;18.034;2023-04-06T06:47:59;102275.41;;;5.07;52.07
51715;BME280;39115;59.332;18.034;2023-04-06T06:50:19;102269.09;;;5.11;52.23
51715;BME280;39115;59.332;18.034;2023-04-06T06:52:40;102273.31;;;5.15;52.65
51715;BME280;39115;59.332;18.034;2023-04-06T06:55:01;102274.94;;;5.19;52.80
51715;BME280;39115;59.332;18.034;2023-04-06T06:57:21;102273.03;;;5.23;52.12
51715;BME280;39115;59.332;18.034;2023-04-06T06:59:42;102277.19;;;5.29;52.22
51715;BME280;39115;59.332;18.034;2023-04-06T07:02:02;102281.34;;;5.34;52.51
51715;BME280;39115;59.332;18.034;2023-04-06T07:04:22;102279.31;;;5.41;52.13
51715;BME280;39115;59.332;18.034;2023-04-06T07:06:43;102274.59;;;5.49;51.89
51715;BME280;39115;59.332;18.034;2023-04-06T07:09:03;102274.38;;;5.54;52.26
51715;BME280;39115;59.332;18.034;2023-04-06T07:11:24;102277.56;;;5.62;52.13
51715;BME280;39115;59.332;18.034;2023-04-06T07:13:44;102269.31;;;5.70;51.88
51715;BME280;39115;59.332;18.034;2023-04-06T07:16:05;102272.41;;;5.80;52.02
51715;BME280;39115;59.332;18.034;2023-04-06T07:18:25;102275.53;;;5.90;51.90
51715;BME280;39115;59.332;18.034;2023-04-06T07:20:45;102281.38;;;5.96;52.40
51715;BME280;39115;59.332;18.034;2023-04-06T07:23:06;102277.72;;;6.00;52.18
51715;BME280;39115;59.332;18.034;2023-04-06T07:25:26;102288.16;;;6.04;52.25
51715;BME280;39115;59.332;18.034;2023-04-06T07:27:47;102290.66;;;6.07;52.46
51715;BME280;39115;59.332;18.034;2023-04-06T07:30:08;102293.03;;;6.13;52.34
51715;BME280;39115;59.332;18.034;2023-04-06T07:32:28;102298.03;;;6.19;52.29
51715;BME280;39115;59.332;18.034;2023-04-06T07:34:49;102300.50;;;6.24;52.37
51715;BME280;39115;59.332;18.034;2023-04-06T07:37:09;102293.28;;;6.27;52.35
51715;BME280;39115;59.332;18.034;2023-04-06T07:39:30;102295.66;;;6.33;52.22
51715;BME280;39115;59.332;18.034;2023-04-06T07:41:50;102296.31;;;6.39;52.02
51715;BME280;39115;59.332;18.034;2023-04-06T07:44:10;102296.09;;;6.43;52.16
51715;BME280;39115;59.332;18.034;2023-04-06T07:46:31;102303.75;;;6.49;51.83
51715;BME280;39115;59.332;18.034;2023-04-06T07:48:51;102298.09;;;6.57;51.52
51715;BME280;39115;59.332;18.034;2023-04-06T07:51:11;102297.03;;;6.61;51.73
51715;BME280;39115;59.332;18.034;2023-04-06T07:53:34;102296.91;;;6.64;52.04
51715;BME280;39115;59.332;18.034;2023-04-06T07:55:54;102291.38;;;6.69;51.76
51715;BME280;39115;59.332;18.034;2023-04-06T07:58:15;102297.38;;;6.73;52.13
51715;BME280;39115;59.332;18.034;2023-04-06T08:00:36;102298.13;;;6.76;51.61
51715;BME280;39115;59.332;18.034;2023-04-06T08:02:56;102304.84;;;6.84;51.79
51715;BME280;39115;59.332;18.034;2023-04-06T08:05:16;102308.75;;;6.94;51.74
51715;BME280;39115;59.332;18.034;2023-04-06T08:07:37;102299.53;;;7.03;51.49
51715;BME280;39115;59.332;18.034;2023-04-06T08:09:58;102302.72;;;7.09;51.47
51715;BME280;39115;59.332;18.034;2023-04-06T08:12:18;102302.72;;;7.09;51.88
51715;BME280;39115;59.332;18.034;2023-04-06T08:14:38;102304.94;;;7.19;51.78
51715;BME280;39115;59.332;18.034;2023-04-06T08:16:59;102309.00;;;7.26;51.72
51715;BME280;39115;59.332;18.034;2023-04-06T08:19:19;102303.34;;;7.34;51.76
51715;BME280;39115;59.332;18.034;2023-04-06T08:21:40;102309.25;;;7.39;51.48
51715;BME280;39115;59.332;18.034;2023-04-06T08:24:01;102312.69;;;7.41;51.57
51715;BME280;39115;59.332;18.034;2023-04-06T08:26:21;102309.19;;;7.40;51.70
51715;BME280;39115;59.332;18.034;2023-04-06T08:28:42;102318.69;;;7.44;51.73
51715;BME280;39115;59.332;18.034;2023-04-06T08:31:05;102315.03;;;7.47;51.41
51715;BME280;39115;59.332;18.034;2023-04-06T08:33:26;102313.19;;;7.49;51.47
51715;BME280;39115;59.332;18.034;2023-04-06T08:35:46;102321.88;;;7.51;51.37
51715;BME280;39115;59.332;18.034;2023-04-06T08:38:06;102321.03;;;7.51;51.68
51715;BME280;39115;59.332;18.034;2023-04-06T08:40:27;102319.31;;;7.50;51.67
51715;BME280;39115;59.332;18.034;2023-04-06T08:42:57;102311.47;;;7.48;51.75
51715;BME280;39115;59.332;18.034;2023-04-06T08:45:19;102307.00;;;7.49;51.71
51715;BME280;39115;59.332;18.034;2023-04-06T08:47:41;102313.94;;;7.51;51.51
51715;BME280;39115;59.332;18.034;2023-04-06T08:50:05;102306.69;;;7.55;51.76
51715;BME280;39115;59.332;18.034;2023-04-06T08:52:26;102310.00;;;7.60;51.51
51715;BME280;39115;59.332;18.034;2023-04-06T08:54:47;102308.97;;;7.63;51.79
51715;BME280;39115;59.332;18.034;2023-04-06T08:57:07;102307.16;;;7.63;51.55
51715;BME280;39115;59.332;18.034;2023-04-06T08:59:27;102305.44;;;7.62;51.44
51715;BME280;39115;59.332;18.034;2023-04-06T09:01:48;102309.06;;;7.61;51.84
51715;BME280;39115;59.332;18.034;2023-04-06T09:04:08;102307.41;;;7.58;51.44
51715;BME280;39115;59.332;18.034;2023-04-06T09:06:30;102305.53;;;7.60;51.51
51715;BME280;39115;59.332;18.034;2023-04-06T09:08:51;102314.13;;;7.66;51.38
51715;BME280;39115;59.332;18.034;2023-04-06T09:11:12;102299.78;;;7.70;51.38
51715;BME280;39115;59.332;18.034;2023-04-06T09:16:06;102311.91;;;7.74;51.54
51715;BME280;39115;59.332;18.034;2023-04-06T09:18:33;102306.69;;;7.72;51.44
51715;BME280;39115;59.332;18.034;2023-04-06T09:21:00;102306.69;;;7.72;51.24
51715;BME280;39115;59.332;18.034;2023-04-06T09:23:21;102304.75;;;7.76;51.37
51715;BME280;39115;59.332;18.034;2023-04-06T09:25:41;102305.41;;;7.81;51.50
51715;BME280;39115;59.332;18.034;2023-04-06T09:28:03;102313.03;;;7.87;51.29
51715;BME280;39115;59.332;18.034;2023-04-06T09:30:23;102306.56;;;7.93;51.12
51715;BME280;39115;59.332;18.034;2023-04-06T09:32:48;102306.28;;;7.98;51.06
51715;BME280;39115;59.332;18.034;2023-04-06T09:35:08;102311.06;;;8.09;51.05
51715;BME280;39115;59.332;18.034;2023-04-06T09:37:29;102302.16;;;8.43;50.67
51715;BME280;39115;59.332;18.034;2023-04-06T09:39:49;102296.31;;;8.70;50.16
51715;BME280;39115;59.332;18.034;2023-04-06T09:42:33;102303.09;;;8.76;50.40
51715;BME280;39115;59.332;18.034;2023-04-06T09:44:52;102300.78;;;8.69;50.54
51715;BME280;39115;59.332;18.034;2023-04-06T09:47:13;102298.38;;;8.65;50.42
51715;BME280;39115;59.332;18.034;2023-04-06T09:49:34;102307.63;;;8.58;50.78
51715;BME280;39115;59.332;18.034;2023-04-06T09:51:59;102305.47;;;8.48;50.62
51715;BME280;39115;59.332;18.034;2023-04-06T09:54:20;102309.03;;;8.47;50.99
51715;BME280;39115;59.332;18.034;2023-04-06T09:59:08;102302.63;;;8.51;50.32
51715;BME280;39115;59.332;18.034;2023-04-06T10:01:32;102302.66;;;8.67;50.69
51715;BME280;39115;59.332;18.034;2023-04-06T10:04:02;102295.88;;;8.94;50.39
51715;BME280;39115;59.332;18.034;2023-04-06T10:06:24;102292.72;;;9.03;50.01
51715;BME280;39115;59.332;18.034;2023-04-06T10:08:47;102297.84;;;9.06;50.22
51715;BME280;39115;59.332;18.034;2023-04-06T10:11:10;102306.16;;;9.00;50.72
51715;BME280;39115;59.332;18.034;2023-04-06T10:13:33;102299.50;;;8.93;50.78
51715;BME280;39115;59.332;18.034;2023-04-06T10:15:54;102302.50;;;8.86;50.81
51715;BME280;39115;59.332;18.034;2023-04-06T10:18:14;102307.28;;;8.80;50.90
51715;BME280;39115;59.332;18.034;2023-04-06T10:20:39;102303.00;;;8.77;50.77
51715;BME280;39115;59.332;18.034;2023-04-06T10:25:32;102315.16;;;8.65;50.77
51715;BME280;39115;59.332;18.034;2023-04-06T10:27:58;102302.06;;;8.62;50.70
51715;BME280;39115;59.332;18.034;2023-04-06T10:30:19;102306.69;;;8.59;51.07
51715;BME280;39115;59.332;18.034;2023-04-06T10:32:39;102305.03;;;8.56;50.92
51715;BME280;39115;59.332;18.034;2023-04-06T10:35:09;102314.00;;;8.53;51.14
51715;BME280;39115;59.332;18.034;2023-04-06T10:37:45;102306.06;;;8.53;50.79
51715;BME280;39115;59.332;18.034;2023-04-06T10:40:06;102296.91;;;8.59;50.71
51715;BME280;39115;59.332;18.034;2023-04-06T10:42:36;102301.19;;;8.62;50.68
51715;BME280;39115;59.332;18.034;2023-04-06T10:44:57;102297.09;;;8.72;50.47
51715;BME280;39115;59.332;18.034;2023-04-06T10:47:17;102294.94;;;8.79;50.65
51715;BME280;39115;59.332;18.034;2023-04-06T10:49:38;102303.44;;;8.85;50.71
51715;BME280;39115;59.332;18.034;2023-04-06T10:51:58;102292.47;;;8.92;50.52
51715;BME280;39115;59.332;18.034;2023-04-06T10:54:20;102290.69;;;8.92;50.60
51715;BME280;39115;59.332;18.034;2023-04-06T10:56:41;102289.66;;;8.95;50.41
51715;BME280;39115;59.332;18.034;2023-04-06T10:59:02;102295.47;;;9.01;50.35
51715;BME280;39115;59.332;18.034;2023-04-06T11:01:22;102294.94;;;9.11;50.41
51715;BME280;39115;59.332;18.034;2023-04-06T11:03:44;102289.28;;;9.17;50.30
51715;BME280;39115;59.332;18.034;2023-04-06T11:06:05;102288.00;;;9.24;50.81
51715;BME280;39115;59.332;18.034;2023-04-06T11:08:35;102289.34;;;9.31;50.30
51715;BME280;39115;59.332;18.034;2023-04-06T11:13:36;102286.06;;;9.42;50.38
51715;BME280;39115;59.332;18.034;2023-04-06T11:15:56;102289.13;;;9.51;50.47
51715;BME280;39115;59.332;18.034;2023-04-06T11:18:17;102281.28;;;9.63;50.15
51715;BME280;39115;59.332;18.034;2023-04-06T11:20:37;102279.09;;;9.70;49.70
51715;BME280;39115;59.332;18.034;2023-04-06T11:22:57;102275.41;;;9.73;49.96
51715;BME280;39115;59.332;18.034;2023-04-06T11:25:19;102284.03;;;9.76;50.42
51715;BME280;39115;59.332;18.034;2023-04-06T11:27:39;102274.09;;;9.80;49.61
51715;BME280;39115;59.332;18.034;2023-04-06T11:30:00;102274.84;;;9.82;49.85
51715;BME280;39115;59.332;18.034;2023-04-06T11:32:21;102277.34;;;9.85;50.14
51715;BME280;39115;59.332;18.034;2023-04-06T11:34:42;102274.97;;;9.95;50.29
51715;BME280;39115;59.332;18.034;2023-04-06T11:37:03;102271.81;;;9.88;50.24
51715;BME280;39115;59.332;18.034;2023-04-06T11:39:26;102279.59;;;9.77;49.70
51715;BME280;39115;59.332;18.034;2023-04-06T11:41:47;102268.16;;;9.91;50.22
51715;BME280;39115;59.332;18.034;2023-04-06T11:44:08;102267.00;;;9.95;49.97
51715;BME280;39115;59.332;18.034;2023-04-06T11:46:28;102274.59;;;10.01;50.26
51715;BME280;39115;59.332;18.034;2023-04-06T11:48:52;102267.88;;;10.10;49.75
51715;BME280;39115;59.332;18.034;2023-04-06T11:51:12;102277.19;;;10.32;49.90
51715;BME280;39115;59.332;18.034;2023-04-06T11:53:32;102262.16;;;10.45;49.85
51715;BME280;39115;59.332;18.034;2023-04-06T11:56:03;102268.34;;;10.60;49.62
51715;BME280;39115;59.332;18.034;2023-04-06T11:58:23;102268.72;;;10.68;49.06
51715;BME280;39115;59.332;18.034;2023-04-06T12:00:44;102265.34;;;10.79;49.42
51715;BME280;39115;59.332;18.034;2023-04-06T12:03:05;102270.63;;;10.94;49.39
51715;BME280;39115;59.332;18.034;2023-04-06T12:05:25;102269.28;;;11.01;49.15
51715;BME280;39115;59.332;18.034;2023-04-06T12:07:46;102272.25;;;10.96;49.58
51715;BME280;39115;59.332;18.034;2023-04-06T12:10:06;102262.81;;;10.90;49.55
51715;BME280;39115;59.332;18.034;2023-04-06T12:12:27;102262.66;;;10.94;49.78
51715;BME280;39115;59.332;18.034;2023-04-06T12:14:47;102258.81;;;10.98;49.62
51715;BME280;39115;59.332;18.034;2023-04-06T12:17:08;102259.47;;;11.01;49.32
51715;BME280;39115;59.332;18.034;2023-04-06T12:19:28;102260.63;;;10.97;49.46
51715;BME280;39115;59.332;18.034;2023-04-06T12:21:49;102261.47;;;10.98;49.59
51715;BME280;39115;59.332;18.034;2023-04-06T12:24:09;102258.91;;;10.96;49.48
51715;BME280;39115;59.332;18.034;2023-04-06T12:26:30;102249.75;;;11.00;49.65